sensor_id;sensor_type;location;lat;lon;timestamp;temperature;humidity
44729;DHT22;30457;53.590;9.922;2023-01-15T00:01:54;11.30;62.30
44729;DHT22;30457;53.590;9.922;2023-01-15T00:06:21;11.30;62.00
44729;DHT22;30457;53.590;9.922;2023-01-15T00:10:48;11.20;62.20
44729;DHT22;30457;53.590;9.922;2023-01-15T00:15:13;11.20;62.30
44729;DHT22;30457;53.590;9.922;2023-01-15T00:19:39;11.10;62.20
44729;DHT22;30457;53.590;9.922;2023-01-15T00:24:04;11.10;62.50
44729;DHT22;30457;53.590;9.922;2023-01-15T00:28:50;11.00;62.50
44729;DHT22;30457;53.590;9.922;2023-01-15T00:33:15;11.00;62.60
44729;DHT22;30457;53.590;9.922;2023-01-15T00:37:41;11.00;62.70
44729;DHT22;30457;53.590;9.922;2023-01-15T00:42:10;11.00;62.80
44729;DHT22;30457;53.590;9.922;2023-01-15T00:46:36;10.90;62.70
44729;DHT22;30457;53.590;9.922;2023-01-15T00:51:02;10.90;62.70
44729;DHT22;30457;53.590;9.922;2023-01-15T00:55:28;10.90;62.80
44729;DHT22;30457;53.590;9.922;2023-01-15T00:59:54;10.80;62.40
44729;DHT22;30457;53.590;9.922;2023-01-15T01:04:19;10.80;62.50
44729;DHT22;30457;53.590;9.922;2023-01-15T01:08:46;10.80;62.70
44729;DHT22;30457;53.590;9.922;2023-01-15T01:13:12;10.80;62.70
44729;DHT22;30457;53.590;9.922;2023-01-15T01:17:37;10.80;62.80
44729;DHT22;30457;53.590;9.922;2023-01-15T01:22:03;10.80;63.00
44729;DHT22;30457;53.590;9.922;2023-01-15T01:26:29;10.80;63.00
44729;DHT22;30457;53.590;9.922;2023-01-15T01:30:54;10.80;63.00
44729;DHT22;30457;53.590;9.922;2023-01-15T01:35:20;10.80;63.00
44729;DHT22;30457;53.590;9.922;2023-01-15T01:39:45;10.70;63.00
44729;DHT22;30457;53.590;9.922;2023-01-15T01:49:01;10.80;63.10
44729;DHT22;30457;53.590;9.922;2023-01-15T01:53:29;10.70;63.10
44729;DHT22;30457;53.590;9.922;2023-01-15T01:57:58;10.70;63.20
44729;DHT22;30457;53.590;9.922;2023-01-15T02:02:25;10.70;63.30
44729;DHT22;30457;53.590;9.922;2023-01-15T02:06:50;10.70;63.40
44729;DHT22;30457;53.590;9.922;2023-01-15T02:11:20;10.70;63.50
44729;DHT22;30457;53.590;9.922;2023-01-15T02:15:51;10.70;63.50
44729;DHT22;30457;53.590;9.922;2023-01-15T02:20:36;10.80;63.50
44729;DHT22;30457;53.590;9.922;2023-01-15T02:25:33;10.70;63.20
44729;DHT22;30457;53.590;9.922;2023-01-15T02:30:17;10.80;63.00
44729;DHT22;30457;53.590;9.922;2023-01-15T02:34:54;10.80;63.10
44729;DHT22;30457;53.590;9.922;2023-01-15T02:39:22;10.80;63.10
44729;DHT22;30457;53.590;9.922;2023-01-15T02:43:52;10.80;62.80
44729;DHT22;30457;53.590;9.922;2023-01-15T02:48:25;10.70;62.50
44729;DHT22;30457;53.590;9.922;2023-01-15T02:52:56;10.80;62.70
44729;DHT22;30457;53.590;9.922;2023-01-15T02:57:29;10.80;62.30
44729;DHT22;30457;53.590;9.922;2023-01-15T03:01:59;10.80;62.30
44729;DHT22;30457;53.590;9.922;2023-01-15T03:11:18;10.70;62.10
44729;DHT22;30457;53.590;9.922;2023-01-15T03:15:57;10.70;62.10
44729;DHT22;30457;53.590;9.922;2023-01-15T03:20:49;10.70;62.00
44729;DHT22;30457;53.590;9.922;2023-01-15T03:25:20;10.70;62.20
44729;DHT22;30457;53.590;9.922;2023-01-15T03:29:57;10.70;62.20
44729;DHT22;30457;53.590;9.922;2023-01-15T03:34:24;10.70;62.20
44729;DHT22;30457;53.590;9.922;2023-01-15T03:38:51;10.70;62.20
44729;DHT22;30457;53.590;9.922;2023-01-15T03:48:32;10.60;61.80
44729;DHT22;30457;53.590;9.922;2023-01-15T03:53:12;10.60;62.00
44729;DHT22;30457;53.590;9.922;2023-01-15T03:58:00;10.60;61.90
44729;DHT22;30457;53.590;9.922;2023-01-15T04:02:31;10.60;61.90
44729;DHT22;30457;53.590;9.922;2023-01-15T04:06:57;10.60;62.00
44729;DHT22;30457;53.590;9.922;2023-01-15T04:11:25;10.60;61.90
44729;DHT22;30457;53.590;9.922;2023-01-15T04:15:54;10.60;61.50
44729;DHT22;30457;53.590;9.922;2023-01-15T04:20:20;10.60;61.60
44729;DHT22;30457;53.590;9.922;2023-01-15T04:24:46;10.60;61.70
44729;DHT22;30457;53.590;9.922;2023-01-15T04:29:11;10.60;62.40
44729;DHT22;30457;53.590;9.922;2023-01-15T04:33:37;10.60;61.80
44729;DHT22;30457;53.590;9.922;2023-01-15T04:38:04;10.60;61.50
44729;DHT22;30457;53.590;9.922;2023-01-15T04:42:29;10.60;61.50
44729;DHT22;30457;53.590;9.922;2023-01-15T04:47:13;10.60;61.50
44729;DHT22;30457;53.590;9.922;2023-01-15T04:51:39;10.60;61.50
44729;DHT22;30457;53.590;9.922;2023-01-15T04:56:06;10.50;61.40
44729;DHT22;30457;53.590;9.922;2023-01-15T05:00:31;10.50;61.30
44729;DHT22;30457;53.590;9.922;2023-01-15T05:04:57;10.50;61.20
44729;DHT22;30457;53.590;9.922;2023-01-15T05:09:22;10.50;61.30
44729;DHT22;30457;53.590;9.922;2023-01-15T05:13:48;10.50;61.30
44729;DHT22;30457;53.590;9.922;2023-01-15T05:18:14;10.50;61.30
44729;DHT22;30457;53.590;9.922;2023-01-15T05:22:40;10.50;61.30
44729;DHT22;30457;53.590;9.922;2023-01-15T05:27:05;10.50;61.30
44729;DHT22;30457;53.590;9.922;2023-01-15T05:31:31;10.40;61.20
44729;DHT22;30457;53.590;9.922;2023-01-15T05:36:05;10.40;61.30
44729;DHT22;30457;53.590;9.922;2023-01-15T05:40:31;10.40;61.20
44729;DHT22;30457;53.590;9.922;2023-01-15T05:44:57;10.40;61.20
44729;DHT22;30457;53.590;9.922;2023-01-15T05:49:25;10.50;61.10
44729;DHT22;30457;53.590;9.922;2023-01-15T05:53:50;10.50;60.80
44729;DHT22;30457;53.590;9.922;2023-01-15T05:58:16;10.50;60.80
44729;DHT22;30457;53.590;9.922;2023-01-15T06:02:42;10.40;60.70
44729;DHT22;30457;53.590;9.922;2023-01-15T06:07:07;10.40;60.50
44729;DHT22;30457;53.590;9.922;2023-01-15T06:11:33;10.40;60.50
44729;DHT22;30457;53.590;9.922;2023-01-15T06:15:59;10.40;60.50
44729;DHT22;30457;53.590;9.922;2023-01-15T06:20:25;10.40;60.50
44729;DHT22;30457;53.590;9.922;2023-01-15T06:24:50;10.40;60.40
44729;DHT22;30457;53.590;9.922;2023-01-15T06:29:16;10.40;60.10
44729;DHT22;30457;53.590;9.922;2023-01-15T06:33:43;10.40;60.10
44729;DHT22;30457;53.590;9.922;2023-01-15T06:38:09;10.40;60.10
44729;DHT22;30457;53.590;9.922;2023-01-15T06:42:34;10.40;59.90
44729;DHT22;30457;53.590;9.922;2023-01-15T06:47:19;10.40;60.00
44729;DHT22;30457;53.590;9.922;2023-01-15T06:51:45;10.40;59.80
44729;DHT22;30457;53.590;9.922;2023-01-15T06:56:10;10.50;59.60
44729;DHT22;30457;53.590;9.922;2023-01-15T07:00:36;10.50;59.30
44729;DHT22;30457;53.590;9.922;2023-01-15T07:05:02;10.50;59.60
44729;DHT22;30457;53.590;9.922;2023-01-15T07:09:28;10.50;59.30
44729;DHT22;30457;53.590;9.922;2023-01-15T07:13:53;10.50;59.20
44729;DHT22;30457;53.590;9.922;2023-01-15T07:18:31;10.50;59.10
44729;DHT22;30457;53.590;9.922;2023-01-15T07:22:57;10.50;59.20
44729;DHT22;30457;53.590;9.922;2023-01-15T07:27:23;10.50;59.20
44729;DHT22;30457;53.590;9.922;2023-01-15T07:31:49;10.50;59.20
44729;DHT22;30457;53.590;9.922;2023-01-15T07:36:15;10.50;59.10
44729;DHT22;30457;53.590;9.922;2023-01-15T07:40:40;10.50;59.20
44729;DHT22;30457;53.590;9.922;2023-01-15T07:45:07;10.50;58.90
44729;DHT22;30457;53.590;9.922;2023-01-15T07:49:51;10.50;59.00
44729;DHT22;30457;53.590;9.922;2023-01-15T07:54:19;10.50;59.00
44729;DHT22;30457;53.590;9.922;2023-01-15T07:58:45;10.50;59.00
44729;DHT22;30457;53.590;9.922;2023-01-15T08:03:14;10.50;59.00
44729;DHT22;30457;53.590;9.922;2023-01-15T08:07:41;10.50;59.00
44729;DHT22;30457;53.590;9.922;2023-01-15T08:12:07;10.50;58.90
44729;DHT22;30457;53.590;9.922;2023-01-15T08:16:52;10.50;58.90
44729;DHT22;30457;53.590;9.922;2023-01-15T08:21:18;10.50;58.60
44729;DHT22;30457;53.590;9.922;2023-01-15T08:25:43;10.40;58.60
44729;DHT22;30457;53.590;9.922;2023-01-15T08:30:15;10.40;58.70
44729;DHT22;30457;53.590;9.922;2023-01-15T08:34:41;10.40;58.40
44729;DHT22;30457;53.590;9.922;2023-01-15T08:39:06;10.40;58.20
44729;DHT22;30457;53.590;9.922;2023-01-15T08:43:32;10.40;58.40
44729;DHT22;30457;53.590;9.922;2023-01-15T08:47:58;10.40;58.30
44729;DHT22;30457;53.590;9.922;2023-01-15T08:52:24;10.30;58.30
44729;DHT22;30457;53.590;9.922;2023-01-15T08:56:50;10.30;58.10
44729;DHT22;30457;53.590;9.922;2023-01-15T09:01:15;10.30;58.20
44729;DHT22;30457;53.590;9.922;2023-01-15T09:05:41;10.30;58.20
44729;DHT22;30457;53.590;9.922;2023-01-15T09:10:07;10.30;58.40
44729;DHT22;30457;53.590;9.922;2023-01-15T09:14:33;10.20;58.40
44729;DHT22;30457;53.590;9.922;2023-01-15T09:18:58;10.20;58.30
44729;DHT22;30457;53.590;9.922;2023-01-15T09:23:24;10.20;58.40
44729;DHT22;30457;53.590;9.922;2023-01-15T09:27:50;10.20;58.40
44729;DHT22;30457;53.590;9.922;2023-01-15T09:32:15;10.20;58.40
44729;DHT22;30457;53.590;9.922;2023-01-15T09:36:41;10.20;58.60
44729;DHT22;30457;53.590;9.922;2023-01-15T09:41:11;10.30;58.50
44729;DHT22;30457;53.590;9.922;2023-01-15T09:46:00;10.30;58.30
44729;DHT22;30457;53.590;9.922;2023-01-15T09:55:19;10.50;57.60
44729;DHT22;30457;53.590;9.922;2023-01-15T09:59:48;10.60;57.60
44729;DHT22;30457;53.590;9.922;2023-01-15T10:04:32;10.70;57.80
44729;DHT22;30457;53.590;9.922;2023-01-15T10:13:46;10.80;57.10
44729;DHT22;30457;53.590;9.922;2023-01-15T10:18:16;10.90;56.60
44729;DHT22;30457;53.590;9.922;2023-01-15T10:22:52;11.00;56.50
44729;DHT22;30457;53.590;9.922;2023-01-15T10:27:24;11.10;55.70
44729;DHT22;30457;53.590;9.922;2023-01-15T10:32:10;11.10;56.10
44729;DHT22;30457;53.590;9.922;2023-01-15T10:37:13;11.20;55.20
44729;DHT22;30457;53.590;9.922;2023-01-15T10:46:17;11.20;55.20
44729;DHT22;30457;53.590;9.922;2023-01-15T10:50:43;11.20;55.00
44729;DHT22;30457;53.590;9.922;2023-01-15T10:55:35;11.20;55.00
44729;DHT22;30457;53.590;9.922;2023-01-15T11:00:02;11.20;54.70
44729;DHT22;30457;53.590;9.922;2023-01-15T11:04:30;11.20;54.50
44729;DHT22;30457;53.590;9.922;2023-01-15T11:08:57;11.20;54.20
44729;DHT22;30457;53.590;9.922;2023-01-15T11:13:25;11.20;54.30
44729;DHT22;30457;53.590;9.922;2023-01-15T11:18:15;11.10;54.50
44729;DHT22;30457;53.590;9.922;2023-01-15T11:23:10;11.10;53.80
44729;DHT22;30457;53.590;9.922;2023-01-15T11:27:37;11.10;53.50
44729;DHT22;30457;53.590;9.922;2023-01-15T11:32:03;11.00;53.90
44729;DHT22;30457;53.590;9.922;2023-01-15T11:36:42;11.00;52.30
44729;DHT22;30457;53.590;9.922;2023-01-15T11:41:23;11.00;53.70
44729;DHT22;30457;53.590;9.922;2023-01-15T11:46:28;10.90;54.00
44729;DHT22;30457;53.590;9.922;2023-01-15T11:51:15;10.80;54.20
44729;DHT22;30457;53.590;9.922;2023-01-15T11:55:49;10.70;54.40
44729;DHT22;30457;53.590;9.922;2023-01-15T12:00:27;10.60;54.70
44729;DHT22;30457;53.590;9.922;2023-01-15T12:04:54;10.50;54.60
44729;DHT22;30457;53.590;9.922;2023-01-15T12:19:00;10.10;54.50
44729;DHT22;30457;53.590;9.922;2023-01-15T12:28:50;10.00;54.50
44729;DHT22;30457;53.590;9.922;2023-01-15T12:33:36;10.00;55.00
44729;DHT22;30457;53.590;9.922;2023-01-15T12:38:27;10.00;55.40
44729;DHT22;30457;53.590;9.922;2023-01-15T12:42:56;10.00;55.80
44729;DHT22;30457;53.590;9.922;2023-01-15T12:52:45;10.00;55.60
44729;DHT22;30457;53.590;9.922;2023-01-15T12:57:30;10.00;56.40
44729;DHT22;30457;53.590;9.922;2023-01-15T13:07:06;10.00;56.60
44729;DHT22;30457;53.590;9.922;2023-01-15T13:11:36;10.10;56.70
44729;DHT22;30457;53.590;9.922;2023-01-15T13:20:35;10.20;57.10
44729;DHT22;30457;53.590;9.922;2023-01-15T13:25:23;10.20;56.90
44729;DHT22;30457;53.590;9.922;2023-01-15T13:34:30;10.30;56.90
44729;DHT22;30457;53.590;9.922;2023-01-15T13:39:02;10.30;56.60
44729;DHT22;30457;53.590;9.922;2023-01-15T13:43:40;10.40;56.60
44729;DHT22;30457;53.590;9.922;2023-01-15T13:48:15;10.40;56.40
44729;DHT22;30457;53.590;9.922;2023-01-15T13:52:41;10.40;56.40
44729;DHT22;30457;53.590;9.922;2023-01-15T13:57:08;10.50;56.20
44729;DHT22;30457;53.590;9.922;2023-01-15T14:01:36;10.60;56.30
44729;DHT22;30457;53.590;9.922;2023-01-15T14:06:04;10.60;56.10
44729;DHT22;30457;53.590;9.922;2023-01-15T14:15:06;10.60;56.00
44729;DHT22;30457;53.590;9.922;2023-01-15T14:38:49;10.80;55.80
44729;DHT22;30457;53.590;9.922;2023-01-15T14:43:19;10.80;55.50
44729;DHT22;30457;53.590;9.922;2023-01-15T14:47:56;10.80;55.30
44729;DHT22;30457;53.590;9.922;2023-01-15T14:52:23;10.80;54.90
44729;DHT22;30457;53.590;9.922;2023-01-15T14:56:55;10.80;55.30
44729;DHT22;30457;53.590;9.922;2023-01-15T15:01:48;10.80;54.90
44729;DHT22;30457;53.590;9.922;2023-01-15T15:06:14;10.80;54.80
44729;DHT22;30457;53.590;9.922;2023-01-15T15:10:44;10.80;54.70
44729;DHT22;30457;53.590;9.922;2023-01-15T15:19:56;10.80;54.90
44729;DHT22;30457;53.590;9.922;2023-01-15T15:24:33;10.80;55.70
44729;DHT22;30457;53.590;9.922;2023-01-15T15:33:39;10.60;56.60
44729;DHT22;30457;53.590;9.922;2023-01-15T15:38:05;10.50;56.90
44729;DHT22;30457;53.590;9.922;2023-01-15T15:42:35;10.30;57.30
44729;DHT22;30457;53.590;9.922;2023-01-15T15:47:22;10.20;57.70
44729;DHT22;30457;53.590;9.922;2023-01-15T15:52:27;10.00;57.90
44729;DHT22;30457;53.590;9.922;2023-01-15T15:57:13;9.90;58.50
44729;DHT22;30457;53.590;9.922;2023-01-15T16:01:40;9.80;58.80
44729;DHT22;30457;53.590;9.922;2023-01-15T16:06:06;9.70;58.80
44729;DHT22;30457;53.590;9.922;2023-01-15T16:10:33;9.60;59.10
44729;DHT22;30457;53.590;9.922;2023-01-15T16:15:00;9.50;59.40
44729;DHT22;30457;53.590;9.922;2023-01-15T16:19:26;9.40;59.60
44729;DHT22;30457;53.590;9.922;2023-01-15T16:24:00;9.40;59.70
44729;DHT22;30457;53.590;9.922;2023-01-15T16:28:40;9.40;60.00
44729;DHT22;30457;53.590;9.922;2023-01-15T16:33:07;9.40;60.00
44729;DHT22;30457;53.590;9.922;2023-01-15T16:37:33;9.30;60.00
44729;DHT22;30457;53.590;9.922;2023-01-15T16:42:00;9.30;60.10
44729;DHT22;30457;53.590;9.922;2023-01-15T16:46:30;9.30;60.20
44729;DHT22;30457;53.590;9.922;2023-01-15T16:50:56;9.30;60.30
44729;DHT22;30457;53.590;9.922;2023-01-15T16:55:40;9.20;60.30
44729;DHT22;30457;53.590;9.922;2023-01-15T17:00:27;9.20;60.60
44729;DHT22;30457;53.590;9.922;2023-01-15T17:04:55;9.20;60.80
44729;DHT22;30457;53.590;9.922;2023-01-15T17:09:21;9.20;60.50
44729;DHT22;30457;53.590;9.922;2023-01-15T17:13:46;9.20;60.50
44729;DHT22;30457;53.590;9.922;2023-01-15T17:18:22;9.20;60.70
44729;DHT22;30457;53.590;9.922;2023-01-15T17:22:49;9.20;60.90
44729;DHT22;30457;53.590;9.922;2023-01-15T17:27:14;9.10;60.90
44729;DHT22;30457;53.590;9.922;2023-01-15T17:31:40;9.20;60.90
44729;DHT22;30457;53.590;9.922;2023-01-15T17:36:09;9.20;61.00
44729;DHT22;30457;53.590;9.922;2023-01-15T17:40:34;9.20;60.90
44729;DHT22;30457;53.590;9.922;2023-01-15T17:45:00;9.20;61.00
44729;DHT22;30457;53.590;9.922;2023-01-15T17:49:25;9.20;61.00
44729;DHT22;30457;53.590;9.922;2023-01-15T17:53:51;9.20;61.10
44729;DHT22;30457;53.590;9.922;2023-01-15T17:58:16;9.20;61.20
44729;DHT22;30457;53.590;9.922;2023-01-15T18:03:01;9.30;61.20
44729;DHT22;30457;53.590;9.922;2023-01-15T18:07:45;9.30;61.30
44729;DHT22;30457;53.590;9.922;2023-01-15T18:12:11;9.30;61.20
44729;DHT22;30457;53.590;9.922;2023-01-15T18:16:37;9.30;61.40
44729;DHT22;30457;53.590;9.922;2023-01-15T18:21:03;9.30;61.50
44729;DHT22;30457;53.590;9.922;2023-01-15T18:25:29;9.40;61.70
44729;DHT22;30457;53.590;9.922;2023-01-15T18:29:57;9.40;61.60
44729;DHT22;30457;53.590;9.922;2023-01-15T18:34:23;9.40;61.60
44729;DHT22;30457;53.590;9.922;2023-01-15T18:38:49;9.50;61.40
44729;DHT22;30457;53.590;9.922;2023-01-15T18:43:15;9.50;61.40
44729;DHT22;30457;53.590;9.922;2023-01-15T18:48:00;9.50;61.30
44729;DHT22;30457;53.590;9.922;2023-01-15T18:52:26;9.50;61.20
44729;DHT22;30457;53.590;9.922;2023-01-15T18:57:11;9.50;61.10
44729;DHT22;30457;53.590;9.922;2023-01-15T19:01:37;9.60;61.10
44729;DHT22;30457;53.590;9.922;2023-01-15T19:06:07;9.60;61.00
44729;DHT22;30457;53.590;9.922;2023-01-15T19:10:34;9.60;61.00
44729;DHT22;30457;53.590;9.922;2023-01-15T19:15:00;9.60;60.90
44729;DHT22;30457;53.590;9.922;2023-01-15T19:19:44;9.60;60.70
44729;DHT22;30457;53.590;9.922;2023-01-15T19:24:09;9.60;60.60
44729;DHT22;30457;53.590;9.922;2023-01-15T19:28:35;9.60;60.60
44729;DHT22;30457;53.590;9.922;2023-01-15T19:33:01;9.60;61.40
44729;DHT22;30457;53.590;9.922;2023-01-15T19:37:27;9.60;60.60
44729;DHT22;30457;53.590;9.922;2023-01-15T19:41:53;9.60;60.60
44729;DHT22;30457;53.590;9.922;2023-01-15T19:46:37;9.50;60.70
44729;DHT22;30457;53.590;9.922;2023-01-15T19:51:22;9.50;60.70
44729;DHT22;30457;53.590;9.922;2023-01-15T19:56:08;9.50;60.60
44729;DHT22;30457;53.590;9.922;2023-01-15T20:00:35;9.50;61.40
44729;DHT22;30457;53.590;9.922;2023-01-15T20:05:01;9.50;60.40
44729;DHT22;30457;53.590;9.922;2023-01-15T20:09:27;9.50;60.40
44729;DHT22;30457;53.590;9.922;2023-01-15T20:13:53;9.50;60.40
44729;DHT22;30457;53.590;9.922;2023-01-15T20:18:18;9.40;60.30
44729;DHT22;30457;53.590;9.922;2023-01-15T20:22:47;9.40;60.40
44729;DHT22;30457;53.590;9.922;2023-01-15T20:27:13;9.40;60.40
44729;DHT22;30457;53.590;9.922;2023-01-15T20:31:38;9.40;60.40
44729;DHT22;30457;53.590;9.922;2023-01-15T20:36:04;9.40;60.50
44729;DHT22;30457;53.590;9.922;2023-01-15T20:40:30;9.40;60.50
44729;DHT22;30457;53.590;9.922;2023-01-15T20:44:55;9.40;60.50
44729;DHT22;30457;53.590;9.922;2023-01-15T20:49:21;9.40;60.50
44729;DHT22;30457;53.590;9.922;2023-01-15T20:53:52;9.40;60.60
44729;DHT22;30457;53.590;9.922;2023-01-15T20:58:18;9.40;60.60
44729;DHT22;30457;53.590;9.922;2023-01-15T21:02:44;9.40;60.60
44729;DHT22;30457;53.590;9.922;2023-01-15T21:07:09;9.40;60.60
44729;DHT22;30457;53.590;9.922;2023-01-15T21:11:35;9.40;60.60
44729;DHT22;30457;53.590;9.922;2023-01-15T21:16:03;9.40;60.60
44729;DHT22;30457;53.590;9.922;2023-01-15T21:20:29;9.50;60.70
44729;DHT22;30457;53.590;9.922;2023-01-15T21:24:55;9.50;60.60
44729;DHT22;30457;53.590;9.922;2023-01-15T21:29:21;9.50;60.50
44729;DHT22;30457;53.590;9.922;2023-01-15T21:38:15;9.50;60.30
44729;DHT22;30457;53.590;9.922;2023-01-15T21:42:41;9.50;60.30
44729;DHT22;30457;53.590;9.922;2023-01-15T21:47:25;9.50;60.20
44729;DHT22;30457;53.590;9.922;2023-01-15T21:51:52;9.40;60.20
44729;DHT22;30457;53.590;9.922;2023-01-15T21:56:17;9.50;60.10
44729;DHT22;30457;53.590;9.922;2023-01-15T22:00:43;9.40;60.20
44729;DHT22;30457;53.590;9.922;2023-01-15T22:05:09;9.40;60.30
44729;DHT22;30457;53.590;9.922;2023-01-15T22:09:34;9.40;60.40
44729;DHT22;30457;53.590;9.922;2023-01-15T22:14:00;9.30;60.30
44729;DHT22;30457;53.590;9.922;2023-01-15T22:18:26;9.30;60.30
44729;DHT22;30457;53.590;9.922;2023-01-15T22:22:52;9.30;60.30
44729;DHT22;30457;53.590;9.922;2023-01-15T22:27:17;9.20;60.30
44729;DHT22;30457;53.590;9.922;2023-01-15T22:31:44;9.20;60.30
44729;DHT22;30457;53.590;9.922;2023-01-15T22:36:10;9.20;60.40
44729;DHT22;30457;53.590;9.922;2023-01-15T22:40:39;9.20;60.60
44729;DHT22;30457;53.590;9.922;2023-01-15T22:45:04;9.20;60.60
44729;DHT22;30457;53.590;9.922;2023-01-15T22:49:31;9.20;60.90
44729;DHT22;30457;53.590;9.922;2023-01-15T22:53:57;9.20;60.80
44729;DHT22;30457;53.590;9.922;2023-01-15T22:58:23;9.20;60.90
44729;DHT22;30457;53.590;9.922;2023-01-15T23:02:49;9.20;60.80
44729;DHT22;30457;53.590;9.922;2023-01-15T23:07:20;9.30;60.80
44729;DHT22;30457;53.590;9.922;2023-01-15T23:11:47;9.30;60.70
44729;DHT22;30457;53.590;9.922;2023-01-15T23:16:14;9.30;60.60
44729;DHT22;30457;53.590;9.922;2023-01-15T23:20:40;9.30;60.50
44729;DHT22;30457;53.590;9.922;2023-01-15T23:25:06;9.30;60.50
44729;DHT22;30457;53.590;9.922;2023-01-15T23:29:33;9.30;60.40
44729;DHT22;30457;53.590;9.922;2023-01-15T23:33:59;9.30;60.10
44729;DHT22;30457;53.590;9.922;2023-01-15T23:38:25;9.30;60.30
44729;DHT22;30457;53.590;9.922;2023-01-15T23:42:50;9.30;60.80
44729;DHT22;30457;53.590;9.922;2023-01-15T23:47:34;9.30;60.40
44729;DHT22;30457;53.590;9.922;2023-01-15T23:52:00;9.40;60.50
44729;DHT22;30457;53.590;9.922;2023-01-15T23:56:28;9.30;60.40
